createdAt,value
2024-03-05T00:09:28.952Z,71.79
2024-03-05T00:19:29.577Z,70.86
2024-03-05T00:29:30.090Z,70.48
2024-03-05T00:39:30.717Z,68.91
2024-03-05T00:49:31.331Z,69.66
2024-03-05T00:59:31.887Z,69.87
2024-03-05T01:09:32.435Z,69.90
2024-03-05T01:19:33.068Z,70.72
2024-03-05T01:29:33.591Z,70.10
2024-03-05T01:39:34.201Z,70.45
2024-03-05T01:49:34.810Z,70.31
2024-03-05T01:59:35.338Z,70.65
2024-03-05T02:09:36.052Z,71.72
2024-03-05T02:19:36.711Z,73.50
2024-03-05T02:29:37.229Z,74.12
2024-03-05T02:39:37.790Z,74.71
2024-03-05T02:49:38.500Z,76.70
2024-03-05T02:59:39.050Z,77.22
2024-03-05T03:09:39.576Z,78.39
2024-03-05T03:19:40.178Z,78.70
2024-03-05T03:29:40.685Z,80.32
2024-03-05T03:39:41.251Z,79.56
2024-03-05T03:49:41.823Z,80.11
2024-03-05T03:59:42.357Z,80.74
2024-03-05T04:09:49.885Z,81.19
2024-03-05T04:19:43.455Z,80.26
2024-03-05T04:29:43.950Z,80.15
2024-03-05T04:39:45.457Z,81.54
2024-03-05T04:49:45.019Z,82.29
2024-03-05T04:59:45.611Z,82.34
2024-03-05T05:09:46.154Z,83.31
2024-03-05T05:19:46.760Z,83.20
2024-03-05T05:29:48.740Z,82.65
2024-03-05T05:39:47.748Z,82.65
2024-03-05T05:49:48.276Z,83.31
2024-03-05T05:59:48.772Z,82.68
2024-03-05T06:09:49.255Z,83.62
2024-03-05T06:19:49.846Z,83.10
2024-03-05T06:29:50.333Z,82.48
2024-03-05T06:39:50.835Z,83.00
2024-03-05T06:49:51.333Z,83.24
2024-03-05T06:59:51.859Z,82.93
2024-03-05T07:09:52.344Z,83.55
2024-03-05T07:19:52.921Z,82.62
2024-03-05T07:29:53.414Z,82.17
2024-03-05T07:39:54.076Z,81.40
2024-03-05T07:49:54.552Z,80.64
2024-03-05T07:59:55.092Z,80.68
2024-03-05T08:09:55.521Z,80.19
2024-03-05T08:19:56.041Z,78.91
2024-03-05T08:29:56.529Z,79.36
2024-03-05T08:39:57.031Z,78.25
2024-03-05T08:49:57.602Z,77.60
2024-03-05T08:59:58.170Z,76.29
2024-03-05T09:09:58.615Z,75.22
2024-03-05T09:19:59.277Z,73.95
2024-03-05T09:29:59.802Z,74.29
2024-03-05T09:40:00.342Z,75.26
2024-03-05T09:50:00.888Z,75.49
2024-03-05T10:00:01.407Z,74.12
2024-03-05T10:10:08.919Z,71.69
2024-03-05T10:20:02.944Z,71.51
2024-03-05T10:30:03.309Z,68.87
2024-03-05T10:40:03.900Z,66.50
2024-03-05T10:50:04.550Z,65.83
2024-03-05T11:00:05.167Z,65.65
2024-03-05T11:10:05.760Z,67.08
2024-03-05T11:20:06.499Z,66.87
2024-03-05T11:30:07.034Z,64.81
2024-03-05T11:40:09.501Z,64.47
2024-03-05T11:50:08.343Z,62.79
2024-03-05T12:00:08.949Z,58.81
2024-03-05T12:10:09.571Z,60.69
2024-03-05T12:20:10.756Z,59.19
2024-03-05T12:30:10.688Z,57.13
2024-03-05T12:40:11.207Z,57.21
2024-03-05T12:50:11.774Z,59.34
2024-03-05T13:00:12.567Z,58.98
2024-03-05T13:10:13.178Z,58.37
2024-03-05T13:20:13.927Z,57.39
2024-03-05T13:30:15.956Z,55.43
2024-03-05T13:40:15.648Z,54.97
2024-03-05T13:50:16.103Z,57.06
2024-03-05T14:00:16.516Z,58.03
2024-03-05T14:10:17.322Z,59.22
2024-03-05T14:20:17.554Z,58.09
2024-03-05T14:30:18.217Z,59.42
2024-03-05T14:40:18.876Z,59.97
2024-03-05T14:50:19.537Z,61.21
2024-03-05T15:00:20.425Z,61.69
2024-03-05T15:10:21.049Z,62.13
2024-03-05T15:20:21.680Z,62.06
2024-03-05T15:30:22.170Z,64.04
2024-03-05T15:40:23.096Z,64.77
2024-03-05T15:50:23.076Z,63.77
2024-03-05T16:00:23.685Z,63.69
2024-03-05T16:10:24.758Z,64.73
2024-03-05T16:20:25.156Z,67.03
2024-03-05T16:30:25.766Z,67.13
2024-03-05T16:40:26.494Z,67.96
2024-03-05T16:50:28.336Z,68.51
2024-03-05T17:00:27.603Z,68.92
2024-03-05T17:10:28.205Z,69.23
2024-03-05T17:20:28.700Z,69.88
2024-03-05T17:30:29.328Z,70.09
2024-03-05T17:40:29.959Z,70.29
2024-03-05T17:50:30.616Z,70.50
2024-03-05T18:00:31.641Z,70.29
2024-03-05T18:10:31.877Z,70.29
2024-03-05T18:20:32.580Z,70.71
2024-03-05T18:30:33.396Z,71.26
2024-03-05T18:40:34.499Z,71.78
2024-03-05T18:50:41.888Z,71.67
2024-03-05T19:00:35.130Z,71.88
2024-03-05T19:10:36.085Z,72.08
2024-03-05T19:20:36.965Z,72.50
2024-03-05T19:30:37.532Z,72.81
2024-03-05T19:40:38.247Z,73.67
2024-03-05T19:50:39.309Z,73.46
2024-03-05T20:00:39.584Z,73.77
2024-03-05T20:10:40.208Z,73.88
2024-03-05T20:20:41.059Z,74.71
2024-03-05T20:30:41.900Z,74.40
2024-03-05T20:40:42.458Z,74.81
2024-03-05T20:50:43.099Z,75.05
2024-03-05T21:00:43.844Z,75.12
2024-03-05T21:10:44.742Z,75.32
2024-03-05T21:20:45.215Z,75.84
2024-03-05T21:30:45.497Z,76.15
2024-03-05T21:40:46.157Z,76.36
2024-03-05T21:50:46.868Z,76.57
2024-03-05T22:00:47.521Z,77.19
2024-03-05T22:10:48.558Z,77.39
2024-03-05T22:20:49.045Z,77.50
2024-03-05T22:30:49.247Z,77.50
2024-03-05T22:40:49.930Z,77.70
2024-03-05T22:50:50.730Z,77.74
2024-03-05T23:00:58.358Z,77.95
2024-03-05T23:10:52.130Z,77.39
2024-03-05T23:20:52.723Z,77.50
2024-03-05T23:30:53.473Z,77.91
2024-03-05T23:40:55.970Z,78.67
2024-03-05T23:50:54.938Z,79.64
